KAUS/AUS METAR and TAF weather

Enter ICAO airport designator
Station Type Date Time Source
KAUS METAR 2020/03/28 20:53 UTC NOAA

KAUS 282053Z 33006G17KT 10SM FEW070 BKN200 OVC250 26/08 A2987 RMK AO2 SLP107 T02560078 58007


Station Type Date Time Source
KAUS Decoded METAR 2020/03/28 20:53 UTC NOAA

AUSTIN-BERGSTROM INTERNATIONAL AIRPORT, TX, United States (KAUS) 30-11N 097-41W 172M
Mar 28, 2020 - 04:53 PM EDT / 2020.03.28 2053 UTC
Wind: from the NNW (330 degrees) at 7 MPH (6 KT) gusting to 20 MPH (17 KT):0
Visibility: 10 mile(s):0
Sky conditions: overcast
Temperature: 78.1 F (25.6 C)
Dew Point: 46.0 F (7.8 C)
Relative Humidity: 32%
Pressure (altimeter): 29.87 in. Hg (1011 hPa)
Pressure tendency: 0.02 inches (0.7 hPa) lower than three hours ago
ob: KAUS 282053Z 33006G17KT 10SM FEW070 BKN200 OVC250 26/08 A2987 RMK AO2 SLP107 T02560078 58007
cycle: 21

Station Type Date Time Source
KAUS TAF 2020/03/28 18:24 UTC NOAA

TAF KAUS 281723Z 2818/2924 33011KT P6SM SCT080 BKN250
FM290000 32004KT P6SM FEW250
FM291700 08007KT P6SM SCT100 BKN250

Example: see airport list